Time;durP1;ratioP1;P1;durP2;ratioP2;P2;SDS_P1;SDS_P2;PMS_P1;PMS_P2;Temp;Humidity;BMP_temperature;BMP_pressure;BME280_temperature;BME280_humidity;BME280_pressure;Samples;Min_cycle;Max_cycle;Signal;HPM_P1;HPM_P2
2022/09/03 00:00:19;;;;;;;3.60;1.10;;;16.30;89.80;;;;;;4962157;28;20053;-53
2022/09/03 00:03:09;;;;;;;3.53;1.00;;;16.30;89.80;;;;;;4966631;28;20053;-54
2022/09/03 00:06:16;;;;;;;1.60;0.98;;;16.30;90.10;;;;;;4964692;28;20401;-54
2022/09/03 00:09:00;;;;;;;2.92;1.00;;;16.20;89.70;;;;;;4964145;28;20046;-54
2022/09/03 00:11:38;;;;;;;4.10;1.00;;;16.20;90.10;;;;;;4965429;28;20051;-53
2022/09/03 00:14:08;;;;;;;3.10;0.90;;;16.20;90.10;;;;;;4964847;28;20046;-55
2022/09/03 00:16:45;;;;;;;2.25;0.95;;;;;;;;;;4965534;28;20437;-54
2022/09/03 00:19:15;;;;;;;2.40;1.03;;;16.10;90.00;;;;;;4964794;28;20047;-55
2022/09/03 00:21:48;;;;;;;1.50;1.10;;;16.00;90.20;;;;;;4968438;28;20444;-53
2022/09/03 00:24:16;;;;;;;1.17;0.95;;;15.90;90.20;;;;;;4966362;28;20087;-54
2022/09/03 00:26:50;;;;;;;1.80;0.98;;;15.90;90.30;;;;;;4965908;28;20051;-53
2022/09/03 00:29:38;;;;;;;3.08;0.93;;;15.80;90.40;;;;;;4964103;28;20081;-53
2022/09/03 00:32:13;;;;;;;1.75;0.90;;;15.80;90.60;;;;;;4965371;28;20053;-54
2022/09/03 00:34:43;;;;;;;2.63;0.80;;;15.70;90.50;;;;;;4963315;28;20039;-52
2022/09/03 00:37:10;;;;;;;2.38;0.88;;;15.70;90.50;;;;;;4966314;28;20047;-50
2022/09/03 00:39:37;;;;;;;4.43;1.10;;;15.60;90.90;;;;;;4967117;28;20042;-55
2022/09/03 00:42:06;;;;;;;3.45;0.80;;;15.60;90.70;;;;;;4966420;28;20457;-55
2022/09/03 00:44:33;;;;;;;5.57;1.00;;;;;;;;;;4964542;28;20082;-53
2022/09/03 00:47:03;;;;;;;1.42;0.80;;;15.60;90.70;;;;;;4965256;28;20053;-51
2022/09/03 00:49:49;;;;;;;2.95;0.88;;;15.60;90.90;;;;;;4963069;28;20050;-53
2022/09/03 00:52:35;;;;;;;1.88;0.93;;;15.50;91.10;;;;;;4966305;28;20047;-51
2022/09/03 00:55:19;;;;;;;2.17;1.10;;;;;;;;;;4962841;28;20133;-51
2022/09/03 00:58:19;;;;;;;1.10;0.80;;;15.40;90.90;;;;;;4966676;28;20062;-54
2022/09/03 01:00:45;;;;;;;1.00;0.90;;;15.40;91.00;;;;;;4962526;28;20561;-54
2022/09/03 01:03:21;;;;;;;3.83;1.10;;;15.40;91.20;;;;;;4965354;28;20106;-54
2022/09/03 01:06:15;;;;;;;2.70;0.90;;;15.40;91.30;;;;;;4962576;28;20050;-54
2022/09/03 01:09:10;;;;;;;1.83;1.17;;;15.40;91.30;;;;;;4965634;28;20122;-55
2022/09/03 01:11:46;;;;;;;2.42;0.98;;;15.40;91.20;;;;;;4967486;28;20122;-53
2022/09/03 01:14:17;;;;;;;4.75;1.02;;;15.30;91.40;;;;;;4979847;28;20046;-53
2022/09/03 01:17:08;;;;;;;4.53;1.00;;;15.30;91.50;;;;;;4964089;28;20342;-54
2022/09/03 01:19:55;;;;;;;0.95;0.80;;;15.30;91.30;;;;;;4956912;28;20190;-54
2022/09/03 01:22:49;;;;;;;1.00;0.88;;;15.30;91.40;;;;;;4980304;28;20051;-51
2022/09/03 01:25:37;;;;;;;3.80;0.80;;;15.20;91.50;;;;;;4964951;28;20133;-55
2022/09/03 01:28:26;;;;;;;3.22;0.90;;;15.20;91.50;;;;;;4966751;28;20626;-54
2022/09/03 01:31:09;;;;;;;1.20;0.90;;;15.20;91.40;;;;;;4962629;28;20065;-51
2022/09/03 01:33:57;;;;;;;3.97;1.05;;;15.20;91.50;;;;;;4965920;28;20404;-53
2022/09/03 01:36:53;;;;;;;2.83;0.70;;;15.20;91.50;;;;;;4964139;28;20043;-52
2022/09/03 01:39:49;;;;;;;5.32;0.90;;;15.20;91.70;;;;;;4959678;28;20051;-52
2022/09/03 01:42:35;;;;;;;1.05;0.70;;;15.20;91.70;;;;;;4965068;28;20043;-53
2022/09/03 01:45:20;;;;;;;3.03;0.90;;;15.10;91.90;;;;;;4966445;28;20494;-53
2022/09/03 01:48:15;;;;;;;2.83;0.80;;;15.20;91.50;;;;;;4967827;28;20302;-54
2022/09/03 01:50:49;;;;;;;3.08;0.95;;;15.20;91.70;;;;;;4967205;28;20370;-51
2022/09/03 01:53:44;;;;;;;1.92;0.80;;;15.10;91.60;;;;;;4968789;28;20042;-50
2022/09/03 01:56:21;;;;;;;1.58;1.00;;;15.20;91.70;;;;;;4970266;28;20039;-52
2022/09/03 01:59:01;;;;;;;3.75;1.02;;;15.10;91.80;;;;;;4966098;28;20441;-51
2022/09/03 02:01:32;;;;;;;1.17;0.70;;;15.20;91.70;;;;;;4965249;28;20520;-54
2022/09/03 02:03:58;;;;;;;1.60;0.70;;;15.10;91.70;;;;;;4969639;28;20043;-52
2022/09/03 02:06:30;;;;;;;3.90;0.98;;;15.10;91.90;;;;;;4969491;28;20059;-51
2022/09/03 02:08:56;;;;;;;4.80;0.90;;;15.10;91.90;;;;;;4965559;28;20049;-53
2022/09/03 02:11:22;;;;;;;1.25;0.70;;;15.10;91.80;;;;;;4971168;28;20047;-54
2022/09/03 02:13:51;;;;;;;1.05;0.70;;;15.00;91.80;;;;;;4968090;28;20045;-51
2022/09/03 02:16:24;;;;;;;1.63;0.60;;;15.10;91.90;;;;;;4966239;28;20121;-54
2022/09/03 02:19:00;;;;;;;4.78;0.93;;;15.00;91.90;;;;;;4968074;28;20590;-54
2022/09/03 02:21:29;;;;;;;1.98;0.88;;;15.00;92.10;;;;;;4967362;28;20058;-54
2022/09/03 02:23:55;;;;;;;1.73;0.80;;;15.00;92.00;;;;;;4966285;28;20058;-54
2022/09/03 02:26:22;;;;;;;1.13;0.80;;;15.00;92.10;;;;;;4969638;28;20405;-51
2022/09/03 02:28:49;;;;;;;0.95;0.73;;;15.00;91.90;;;;;;4968407;28;20043;-50
2022/09/03 02:31:15;;;;;;;3.33;1.10;;;15.00;92.00;;;;;;4966364;28;20076;-52
2022/09/03 02:33:44;;;;;;;1.08;0.68;;;15.00;92.00;;;;;;4967328;28;20108;-54
2022/09/03 02:36:13;;;;;;;1.25;0.80;;;15.00;92.00;;;;;;4969275;28;20544;-52
2022/09/03 02:38:41;;;;;;;2.47;0.85;;;15.00;92.00;;;;;;4965004;28;20045;-52
2022/09/03 02:41:07;;;;;;;2.75;0.80;;;15.00;92.00;;;;;;4967773;28;20069;-54
2022/09/03 02:44:05;;;;;;;2.67;0.77;;;15.00;92.20;;;;;;4968812;28;20084;-48
2022/09/03 02:46:42;;;;;;;1.80;0.80;;;15.00;92.10;;;;;;4970033;28;20050;-52
2022/09/03 02:49:08;;;;;;;1.75;0.70;;;15.00;92.10;;;;;;4966445;28;20050;-53
2022/09/03 02:51:40;;;;;;;4.07;1.23;;;15.00;92.20;;;;;;4968088;28;20047;-52
2022/09/03 02:54:05;;;;;;;2.63;0.80;;;15.00;92.20;;;;;;4967553;28;20075;-54
2022/09/03 02:56:31;;;;;;;1.27;0.70;;;15.00;92.30;;;;;;4966114;28;20077;-51
2022/09/03 02:58:57;;;;;;;2.65;0.80;;;15.00;92.20;;;;;;4966792;28;20099;-55
2022/09/03 03:01:23;;;;;;;0.80;0.80;;;15.00;92.10;;;;;;4967288;28;20089;-54
2022/09/03 03:03:49;;;;;;;1.65;0.77;;;15.00;92.30;;;;;;4966189;28;20053;-50
2022/09/03 03:06:15;;;;;;;0.90;0.85;;;15.00;92.30;;;;;;4966193;28;20047;-52
2022/09/03 03:08:41;;;;;;;1.98;1.02;;;15.00;92.20;;;;;;4966081;28;20030;-53
2022/09/03 03:11:06;;;;;;;1.45;0.90;;;15.00;92.30;;;;;;4968949;28;20093;-52
2022/09/03 03:13:33;;;;;;;1.67;0.90;;;15.00;92.20;;;;;;4963794;28;20086;-50
2022/09/03 03:16:00;;;;;;;1.27;0.95;;;14.90;92.30;;;;;;4967385;28;20046;-55
2022/09/03 03:18:27;;;;;;;2.85;1.00;;;14.90;92.30;;;;;;4968354;28;20039;-54
2022/09/03 03:20:53;;;;;;;0.95;0.85;;;14.90;92.50;;;;;;4964942;28;20584;-52
2022/09/03 03:23:19;;;;;;;1.92;0.90;;;14.90;92.60;;;;;;4963285;28;20039;-52
2022/09/03 03:25:45;;;;;;;2.33;1.00;;;14.80;92.60;;;;;;4966659;28;20058;-51
2022/09/03 03:28:12;;;;;;;1.98;0.80;;;14.80;92.60;;;;;;4969372;28;20043;-51
2022/09/03 03:30:39;;;;;;;1.88;0.90;;;14.70;92.80;;;;;;4968419;28;20047;-53
2022/09/03 03:33:05;;;;;;;2.17;0.90;;;14.70;92.90;;;;;;4965940;28;20042;-56
2022/09/03 03:35:31;;;;;;;1.48;0.80;;;14.60;93.00;;;;;;4967140;28;20035;-53
2022/09/03 03:37:58;;;;;;;4.60;0.63;;;14.60;93.20;;;;;;4968469;28;20069;-53
2022/09/03 03:40:24;;;;;;;4.85;0.90;;;14.60;93.40;;;;;;4965403;28;20039;-52
2022/09/03 03:42:49;;;;;;;1.27;0.73;;;14.50;93.40;;;;;;4964299;28;20069;-54
2022/09/03 03:45:15;;;;;;;1.60;0.70;;;14.50;93.40;;;;;;4968337;28;20049;-51
2022/09/03 03:47:43;;;;;;;2.35;0.88;;;14.40;93.40;;;;;;4968118;28;20060;-48
2022/09/03 03:50:08;;;;;;;;;;;14.30;94.00;;;;;;4965593;28;20133;-51
2022/09/03 03:52:34;;;;;;;0.73;0.73;;;14.40;93.80;;;;;;4970940;28;20024;-50
2022/09/03 03:54:59;;;;;;;2.15;0.90;;;14.30;93.90;;;;;;4963888;28;20133;-52
2022/09/03 03:57:28;;;;;;;1.60;0.88;;;14.30;93.90;;;;;;4965340;28;20046;-50
2022/09/03 03:59:54;;;;;;;1.58;0.85;;;14.40;98.00;;;;;;4968246;28;20050;-52
2022/09/03 04:02:20;;;;;;;2.30;1.00;;;14.30;94.50;;;;;;4965303;28;20093;-52
2022/09/03 04:04:46;;;;;;;1.58;0.80;;;;;;;;;;4965313;28;20042;-49
2022/09/03 04:07:12;;;;;;;0.82;0.75;;;;;;;;;;4966135;28;20055;-51
2022/09/03 04:09:38;;;;;;;2.88;0.70;;;14.50;93.60;;;;;;4964021;28;20485;-49
2022/09/03 04:12:07;;;;;;;1.35;0.90;;;14.20;94.00;;;;;;4968240;28;20050;-51
2022/09/03 04:14:34;;;;;;;3.13;1.27;;;14.10;94.20;;;;;;4962972;28;20081;-55
2022/09/03 04:17:00;;;;;;;5.00;1.23;;;14.10;94.30;;;;;;4965206;28;20078;-53
2022/09/03 04:19:29;;;;;;;2.15;1.00;;;14.00;94.40;;;;;;4965853;28;20038;-53
2022/09/03 04:21:55;;;;;;;1.33;1.00;;;;;;;;;;4966702;28;20055;-55
2022/09/03 04:24:20;;;;;;;2.95;0.90;;;14.00;94.40;;;;;;4966539;28;20086;-53
2022/09/03 04:26:49;;;;;;;3.05;0.93;;;14.00;94.70;;;;;;4967871;28;20070;-54
2022/09/03 04:29:15;;;;;;;2.75;1.00;;;13.90;95.00;;;;;;4967706;28;20413;-51
2022/09/03 04:32:51;;;;;;;2.15;0.82;;;13.90;94.90;;;;;;4966942;28;20046;-55
2022/09/03 04:34:26;;;;;;;2.20;0.80;;;13.90;95.00;;;;;;4967282;28;20051;-53
2022/09/03 04:36:51;;;;;;;2.22;0.90;;;13.90;95.60;;;;;;4967704;28;20053;-54
2022/09/03 04:39:17;;;;;;;1.55;1.00;;;13.90;95.10;;;;;;4965464;28;20045;-55
2022/09/03 04:41:43;;;;;;;2.15;0.70;;;13.90;95.40;;;;;;4968829;28;20043;-51
2022/09/03 04:44:08;;;;;;;1.52;0.90;;;13.90;95.40;;;;;;4968471;28;20758;-55
2022/09/03 04:46:34;;;;;;;3.47;1.17;;;13.90;95.30;;;;;;4964695;28;20031;-52
2022/09/03 04:49:01;;;;;;;1.92;0.82;;;13.90;95.40;;;;;;4965057;28;20105;-54
2022/09/03 04:51:28;;;;;;;1.92;1.00;;;13.90;95.60;;;;;;4966669;28;20128;-53
2022/09/03 04:53:57;;;;;;;1.08;0.90;;;13.90;95.40;;;;;;4967321;28;20105;-55
2022/09/03 04:56:25;;;;;;;3.53;0.80;;;13.90;95.60;;;;;;4966834;28;20043;-53
2022/09/03 04:58:59;;;;;;;1.67;0.93;;;13.90;95.50;;;;;;4963251;28;20055;-52
2022/09/03 05:01:27;;;;;;;3.28;1.35;;;13.90;95.70;;;;;;4964871;28;20046;-53
2022/09/03 05:03:54;;;;;;;;;;;13.90;95.80;;;;;;4965130;28;20425;-51
2022/09/03 05:06:20;;;;;;;1.10;1.00;;;13.90;95.90;;;;;;4967220;28;19933;-53
2022/09/03 05:08:49;;;;;;;2.03;1.00;;;13.90;95.60;;;;;;4965795;28;20043;-55
2022/09/03 05:11:16;;;;;;;1.10;0.88;;;;;;;;;;4963916;28;20030;-53
2022/09/03 05:13:42;;;;;;;0.93;0.90;;;14.00;95.40;;;;;;4966280;28;20043;-56
2022/09/03 05:16:11;;;;;;;2.38;0.93;;;14.00;95.90;;;;;;4961104;28;20063;-53
2022/09/03 05:18:38;;;;;;;3.25;1.00;;;14.00;95.90;;;;;;4967798;28;20058;-54
2022/09/03 05:21:08;;;;;;;2.15;1.17;;;14.00;95.80;;;;;;4969682;28;20049;-52
2022/09/03 05:23:43;;;;;;;0.90;0.80;;;14.10;95.90;;;;;;4969672;28;20094;-51
2022/09/03 05:26:15;;;;;;;4.63;0.95;;;14.10;95.80;;;;;;4972198;28;20548;-55
2022/09/03 05:28:43;;;;;;;1.48;1.05;;;;;;;;;;4969937;28;20089;-55
2022/09/03 05:31:10;;;;;;;;;;;14.20;99.90;;;;;;4968334;28;20042;-51
2022/09/03 05:33:37;;;;;;;2.05;0.98;;;14.40;95.60;;;;;;4971234;28;19969;-48
2022/09/03 05:36:05;;;;;;;1.25;0.90;;;14.50;96.10;;;;;;4970517;28;20516;-54
2022/09/03 05:38:30;;;;;;;;;;;14.50;96.20;;;;;;4971250;28;20145;-53
2022/09/03 05:41:01;;;;;;;2.45;1.30;;;14.70;99.60;;;;;;4972512;28;19926;-53
2022/09/03 05:43:27;;;;;;;1.50;1.10;;;14.60;95.80;;;;;;4969044;28;20145;-54
2022/09/03 05:46:00;;;;;;;1.48;1.02;;;14.60;95.30;;;;;;4972226;28;20133;-50
2022/09/03 05:48:28;;;;;;;2.65;1.13;;;14.70;95.50;;;;;;4970537;28;20065;-53
2022/09/03 05:51:01;;;;;;;2.63;1.10;;;14.80;95.20;;;;;;4971105;28;20050;-50
2022/09/03 05:53:28;;;;;;;4.00;1.10;;;;;;;;;;4970631;28;20047;-53
2022/09/03 05:55:58;;;;;;;3.80;0.90;;;14.90;95.10;;;;;;4970289;28;20066;-49
2022/09/03 05:58:28;;;;;;;5.53;1.20;;;15.10;95.30;;;;;;4966354;28;20051;-52
2022/09/03 06:00:54;;;;;;;1.38;1.10;;;15.90;95.00;;;;;;4967281;28;20042;-52
2022/09/03 06:03:19;;;;;;;2.00;1.10;;;16.80;94.20;;;;;;4970475;28;20117;-56
2022/09/03 06:05:50;;;;;;;1.42;1.10;;;17.40;92.20;;;;;;4970638;28;20043;-55
2022/09/03 06:08:16;;;;;;;3.47;1.10;;;18.00;91.70;;;;;;4969214;28;20094;-54
2022/09/03 06:10:41;;;;;;;2.45;1.20;;;18.60;91.00;;;;;;4969704;28;20090;-51
2022/09/03 06:13:07;;;;;;;4.00;1.60;;;19.10;90.40;;;;;;4966563;28;20051;-56
2022/09/03 06:15:32;;;;;;;2.00;1.10;;;19.30;89.30;;;;;;4964389;28;20408;-56
2022/09/03 06:17:58;;;;;;;1.48;1.20;;;;;;;;;;4968760;28;20039;-53
2022/09/03 06:20:27;;;;;;;3.58;1.25;;;19.50;86.20;;;;;;4966845;28;20045;-53
2022/09/03 06:22:54;;;;;;;2.70;1.30;;;19.80;87.50;;;;;;4966465;28;21319;-56
2022/09/03 06:25:20;;;;;;;2.92;1.30;;;20.00;87.90;;;;;;4964344;28;20047;-54
2022/09/03 06:27:46;;;;;;;1.92;1.38;;;20.50;86.90;;;;;;4968275;28;20392;-54
2022/09/03 06:30:12;;;;;;;2.58;1.30;;;20.70;85.00;;;;;;4968296;28;20441;-54
2022/09/03 06:32:51;;;;;;;3.13;1.23;;;20.70;84.70;;;;;;4969158;28;20149;-55
2022/09/03 06:35:17;;;;;;;3.42;1.33;;;21.20;85.00;;;;;;4969945;28;20039;-53
2022/09/03 06:37:43;;;;;;;3.70;1.02;;;21.20;83.80;;;;;;4968370;28;20145;-54
2022/09/03 06:40:13;;;;;;;1.67;1.00;;;21.50;82.50;;;;;;4966579;28;20049;-52
2022/09/03 06:42:41;;;;;;;3.28;1.13;;;21.40;81.80;;;;;;4969184;28;20068;-54
2022/09/03 06:45:08;;;;;;;4.78;1.13;;;21.20;81.10;;;;;;4969540;28;20051;-55
2022/09/03 06:47:34;;;;;;;4.72;1.23;;;20.70;81.70;;;;;;4966438;28;20042;-54
2022/09/03 06:50:00;;;;;;;2.42;1.10;;;20.70;82.00;;;;;;4968976;28;20067;-54
2022/09/03 06:52:27;;;;;;;1.20;1.08;;;20.90;82.70;;;;;;4969499;28;20042;-53
2022/09/03 06:54:52;;;;;;;2.35;1.38;;;20.60;82.30;;;;;;4966706;28;20169;-55
2022/09/03 06:57:18;;;;;;;2.13;1.20;;;21.00;83.30;;;;;;4966854;28;20066;-53
2022/09/03 06:59:44;;;;;;;2.13;1.45;;;20.60;82.70;;;;;;4966159;28;20038;-53
2022/09/03 07:02:09;;;;;;;1.75;1.33;;;21.00;82.80;;;;;;4966815;28;20504;-55
2022/09/03 07:04:35;;;;;;;2.30;1.45;;;21.10;82.90;;;;;;4969969;28;20089;-54
2022/09/03 07:07:01;;;;;;;2.67;1.20;;;21.40;81.40;;;;;;4968572;28;20047;-56
2022/09/03 07:09:27;;;;;;;3.47;1.20;;;21.20;81.40;;;;;;4966938;28;20042;-54
2022/09/03 07:11:53;;;;;;;1.90;1.15;;;21.00;80.80;;;;;;4963743;28;20050;-57
2022/09/03 07:14:20;;;;;;;2.50;1.10;;;20.80;81.50;;;;;;4964929;28;20057;-56
2022/09/03 07:16:48;;;;;;;;;;;20.60;82.30;;;;;;4966454;28;20446;-52
2022/09/03 07:19:14;;;;;;;1.88;1.20;;;20.40;83.10;;;;;;4963466;28;19934;-55
2022/09/03 07:21:41;;;;;;;4.88;1.10;;;19.60;84.10;;;;;;4967377;28;20510;-55
2022/09/03 07:24:08;;;;;;;3.00;1.10;;;19.50;84.60;;;;;;4965331;28;20572;-56
2022/09/03 07:26:39;;;;;;;2.55;1.00;;;19.10;85.80;;;;;;4966009;28;20077;-53
2022/09/03 07:29:06;;;;;;;2.35;1.10;;;19.00;86.30;;;;;;4967612;28;20047;-55
2022/09/03 07:31:40;;;;;;;2.72;1.40;;;18.90;86.90;;;;;;4967043;28;20378;-55
2022/09/03 07:34:11;;;;;;;1.63;1.10;;;18.70;87.90;;;;;;4968550;28;20050;-56
2022/09/03 07:36:42;;;;;;;4.07;1.08;;;18.90;87.70;;;;;;4968134;28;20390;-56
2022/09/03 07:39:10;;;;;;;5.25;1.00;;;18.90;88.30;;;;;;4966176;28;20052;-56
2022/09/03 07:41:36;;;;;;;3.10;1.20;;;19.00;88.00;;;;;;4964266;28;20497;-55
2022/09/03 07:44:04;;;;;;;2.05;1.20;;;18.80;87.40;;;;;;4965805;28;20049;-57
2022/09/03 07:46:32;;;;;;;1.67;1.30;;;19.00;88.50;;;;;;4968042;28;20133;-57
2022/09/03 07:49:02;;;;;;;3.97;1.10;;;18.90;87.60;;;;;;4966257;28;20050;-55
2022/09/03 07:51:30;;;;;;;3.03;1.20;;;19.00;87.40;;;;;;4964308;28;20400;-58
2022/09/03 07:53:58;;;;;;;2.15;1.10;;;19.10;87.30;;;;;;4964529;28;20049;-56
2022/09/03 07:56:24;;;;;;;;;;;19.20;87.50;;;;;;4967121;28;20092;-55
2022/09/03 07:58:50;;;;;;;1.38;0.90;;;19.20;87.60;;;;;;4966073;28;19926;-55
2022/09/03 08:01:21;;;;;;;2.92;1.30;;;19.50;87.90;;;;;;4967209;28;20043;-56
2022/09/03 08:03:48;;;;;;;1.38;1.10;;;19.60;86.60;;;;;;4967424;28;20049;-54
2022/09/03 08:06:16;;;;;;;2.65;1.08;;;19.90;87.40;;;;;;4966212;28;20047;-55
2022/09/03 08:08:44;;;;;;;1.52;1.02;;;20.00;86.20;;;;;;4964188;28;20045;-57
2022/09/03 08:11:20;;;;;;;3.13;1.13;;;20.00;86.30;;;;;;4966176;28;20587;-56
2022/09/03 08:13:48;;;;;;;2.67;1.02;;;20.10;86.40;;;;;;4967939;28;20050;-56
2022/09/03 08:16:17;;;;;;;2.28;1.10;;;20.20;85.50;;;;;;4964875;28;20077;-55
2022/09/03 08:18:43;;;;;;;3.83;1.20;;;20.30;85.50;;;;;;4966250;28;20485;-56
2022/09/03 08:21:14;;;;;;;1.58;1.10;;;20.40;85.70;;;;;;4966642;28;20054;-55
2022/09/03 08:23:51;;;;;;;2.00;1.10;;;20.60;86.10;;;;;;4966788;28;20042;-54
2022/09/03 08:26:18;;;;;;;1.87;1.07;;;20.70;85.50;;;;;;4964860;28;20053;-54
2022/09/03 08:28:45;;;;;;;3.03;1.08;;;20.90;85.90;;;;;;4966966;28;20302;-57
2022/09/03 08:31:19;;;;;;;2.72;1.10;;;20.90;85.80;;;;;;4965341;28;20134;-55
2022/09/03 08:33:47;;;;;;;2.38;1.10;;;21.00;84.50;;;;;;4967630;28;20126;-54
2022/09/03 08:36:16;;;;;;;3.35;1.23;;;21.00;85.60;;;;;;4964309;28;20070;-54
2022/09/03 08:38:44;;;;;;;2.75;1.08;;;21.10;85.20;;;;;;4966176;28;20735;-52
2022/09/03 08:41:15;;;;;;;4.43;1.20;;;21.10;85.00;;;;;;4965233;28;20050;-54
2022/09/03 08:44:19;;;;;;;3.90;1.20;;;21.20;85.00;;;;;;4967290;28;20058;-56
2022/09/03 08:46:52;;;;;;;2.75;1.20;;;21.10;84.80;;;;;;4947872;28;20050;-55
2022/09/03 08:49:32;;;;;;;3.90;1.10;;;21.10;83.80;;;;;;4968393;28;20047;-55
2022/09/03 08:52:03;;;;;;;2.47;1.08;;;21.20;84.10;;;;;;4968449;28;20053;-55
2022/09/03 08:54:30;;;;;;;1.55;0.93;;;21.20;84.70;;;;;;4969326;28;20073;-56
2022/09/03 08:57:00;;;;;;;2.63;1.00;;;21.10;85.10;;;;;;4966228;28;20046;-54
2022/09/03 08:59:26;;;;;;;3.00;1.20;;;21.20;84.70;;;;;;4968955;28;20043;-53
2022/09/03 09:02:19;;;;;;;1.42;1.13;;;21.20;84.70;;;;;;4969076;28;20097;-55
2022/09/03 09:04:47;;;;;;;3.95;1.10;;;21.30;84.40;;;;;;4960762;28;20046;-53
2022/09/03 09:07:22;;;;;;;2.55;1.40;;;21.40;85.00;;;;;;4969239;28;20047;-55
2022/09/03 09:10:05;;;;;;;2.00;1.08;;;21.60;84.80;;;;;;4966045;28;20405;-53
2022/09/03 09:12:52;;;;;;;1.48;1.02;;;21.70;85.40;;;;;;4968016;28;20050;-57
2022/09/03 09:15:46;;;;;;;4.67;1.10;;;22.00;85.20;;;;;;4966374;28;20039;-57
2022/09/03 09:18:41;;;;;;;2.42;0.90;;;22.20;83.70;;;;;;4968203;28;20375;-54
2022/09/03 09:21:14;;;;;;;5.15;1.10;;;22.20;83.40;;;;;;4966865;28;20047;-57
2022/09/03 09:23:46;;;;;;;2.85;1.10;;;22.30;84.40;;;;;;4968937;28;20051;-55
2022/09/03 09:26:15;;;;;;;4.65;1.20;;;22.30;82.10;;;;;;4965690;28;20188;-55
2022/09/03 09:28:44;;;;;;;4.68;1.00;;;22.30;82.80;;;;;;4965100;28;20035;-57
2022/09/03 09:31:14;;;;;;;1.73;1.05;;;22.50;82.90;;;;;;4964446;28;20055;-56
2022/09/03 09:33:40;;;;;;;2.88;0.90;;;22.60;83.30;;;;;;4961209;28;20093;-57
2022/09/03 09:36:15;;;;;;;6.22;1.13;;;22.60;82.20;;;;;;4967050;28;20137;-57
2022/09/03 09:38:42;;;;;;;2.28;1.13;;;22.60;81.70;;;;;;4967000;28;20456;-56
2022/09/03 09:41:10;;;;;;;4.70;1.63;;;22.60;80.60;;;;;;4965898;28;20031;-55
2022/09/03 09:43:37;;;;;;;3.67;1.02;;;22.80;81.80;;;;;;4968460;28;20042;-55
2022/09/03 09:46:13;;;;;;;2.70;0.95;;;22.90;81.30;;;;;;4968314;28;20413;-55
2022/09/03 09:48:56;;;;;;;5.65;1.10;;;23.00;80.70;;;;;;4967590;28;20056;-56
2022/09/03 09:51:29;;;;;;;2.17;0.95;;;23.10;80.50;;;;;;4968760;28;20105;-58
2022/09/03 09:54:01;;;;;;;4.35;1.10;;;23.30;80.90;;;;;;4967535;28;20078;-56
2022/09/03 09:56:27;;;;;;;2.25;1.02;;;23.50;79.90;;;;;;4965262;28;20046;-56
2022/09/03 09:59:07;;;;;;;1.65;0.90;;;23.50;79.10;;;;;;4966459;28;20051;-57
2022/09/03 10:01:35;;;;;;;5.07;1.10;;;23.30;78.70;;;;;;4967907;28;20074;-53
2022/09/03 10:04:20;;;;;;;1.13;0.90;;;23.40;78.60;;;;;;4966818;28;20109;-57
2022/09/03 10:06:54;;;;;;;1.05;0.90;;;23.50;78.70;;;;;;4965687;28;20392;-55
2022/09/03 10:09:22;;;;;;;2.15;1.05;;;23.60;78.20;;;;;;4970272;28;20619;-57
2022/09/03 10:11:51;;;;;;;1.58;1.10;;;23.80;78.60;;;;;;4971889;28;20059;-55
2022/09/03 10:14:33;;;;;;;2.08;0.90;;;24.00;79.20;;;;;;4966115;28;20400;-56
2022/09/03 10:17:50;;;;;;;1.70;1.05;;;24.20;78.20;;;;;;4968189;28;20413;-57
2022/09/03 10:20:30;;;;;;;1.67;1.00;;;24.40;78.40;;;;;;4954496;28;20501;-56
2022/09/03 10:23:09;;;;;;;3.85;0.93;;;24.40;77.20;;;;;;4971387;28;20066;-57
2022/09/03 10:25:38;;;;;;;3.67;0.90;;;24.50;76.20;;;;;;4968774;28;20082;-57
2022/09/03 10:28:06;;;;;;;4.72;0.90;;;24.40;75.40;;;;;;4972364;28;20133;-55
2022/09/03 10:30:57;;;;;;;1.83;0.88;;;24.50;74.90;;;;;;4975651;28;20047;-55
2022/09/03 10:33:41;;;;;;;2.80;0.85;;;24.50;75.10;;;;;;4952783;28;20066;-57
2022/09/03 10:36:15;;;;;;;4.20;1.40;;;24.50;75.70;;;;;;4973213;28;20597;-58
2022/09/03 10:38:43;;;;;;;3.33;0.90;;;24.60;74.80;;;;;;4971364;28;20042;-56
2022/09/03 10:41:42;;;;;;;2.50;1.15;;;24.50;74.70;;;;;;4970263;28;20049;-56
2022/09/03 10:44:37;;;;;;;1.42;0.93;;;24.70;75.20;;;;;;4982013;28;20055;-56
2022/09/03 10:47:44;;;;;;;2.88;1.02;;;24.60;72.90;;;;;;4971760;28;20051;-56
2022/09/03 10:50:15;;;;;;;5.32;0.90;;;24.70;73.80;;;;;;4946881;28;20054;-57
2022/09/03 10:53:04;;;;;;;0.65;0.65;;;24.80;73.80;;;;;;4969830;28;20047;-57
2022/09/03 10:55:49;;;;;;;2.17;0.85;;;24.60;72.90;;;;;;4971077;28;20059;-57
2022/09/03 10:58:27;;;;;;;2.97;0.95;;;24.70;72.30;;;;;;4969076;28;20042;-56
2022/09/03 11:00:58;;;;;;;7.70;1.00;;;24.80;72.40;;;;;;4969544;28;20058;-54
2022/09/03 11:03:33;;;;;;;4.50;1.20;;;25.00;72.50;;;;;;4969040;28;20046;-53
2022/09/03 11:06:23;;;;;;;1.38;0.80;;;25.00;71.10;;;;;;4968933;28;20412;-55
2022/09/03 11:09:10;;;;;;;1.15;0.80;;;24.90;70.80;;;;;;4969129;28;20176;-59
2022/09/03 11:11:39;;;;;;;;;;;24.80;70.80;;;;;;4965336;28;20054;-55
2022/09/03 11:14:12;;;;;;;3.97;1.10;;;24.80;70.80;;;;;;4965085;28;19928;-57
2022/09/03 11:17:36;;;;;;;1.48;0.80;;;24.80;71.30;;;;;;4968268;28;20410;-57
2022/09/03 11:20:17;;;;;;;3.08;0.68;;;24.80;69.40;;;;;;4955322;28;20055;-55
2022/09/03 11:22:45;;;;;;;2.78;0.90;;;25.00;69.90;;;;;;4969652;28;20042;-56
2022/09/03 11:25:13;;;;;;;4.38;0.82;;;24.90;69.90;;;;;;4965389;28;20062;-56
2022/09/03 11:27:42;;;;;;;1.65;0.73;;;25.10;70.50;;;;;;4968175;28;20053;-57
2022/09/03 11:30:13;;;;;;;2.00;1.00;;;25.10;70.00;;;;;;4967900;28;20054;-58
2022/09/03 11:32:59;;;;;;;0.82;0.80;;;25.30;71.20;;;;;;4968895;28;20553;-56
2022/09/03 11:35:40;;;;;;;1.92;1.00;;;25.30;68.80;;;;;;4970741;28;20118;-54
2022/09/03 11:38:19;;;;;;;2.25;0.90;;;25.20;68.90;;;;;;4968234;28;20077;-55
2022/09/03 11:40:59;;;;;;;1.90;0.70;;;25.30;69.50;;;;;;4969311;28;20496;-54
2022/09/03 11:43:28;;;;;;;2.17;0.80;;;25.30;68.30;;;;;;4969371;28;20515;-55
2022/09/03 11:46:13;;;;;;;2.20;0.75;;;25.40;69.20;;;;;;4966018;28;20527;-52
2022/09/03 11:48:44;;;;;;;1.65;0.88;;;25.40;69.90;;;;;;4972188;28;20062;-55
2022/09/03 11:51:36;;;;;;;2.10;0.95;;;25.50;68.90;;;;;;4974580;28;20058;-54
2022/09/03 11:54:22;;;;;;;2.90;0.93;;;25.70;69.40;;;;;;4974090;28;20050;-55
2022/09/03 11:56:49;;;;;;;1.50;0.77;;;25.60;69.20;;;;;;4970153;28;20556;-57
2022/09/03 11:59:25;;;;;;;2.88;0.80;;;25.60;69.10;;;;;;4973674;28;20101;-56
2022/09/03 12:02:04;;;;;;;2.55;0.80;;;25.70;68.70;;;;;;4973022;28;20500;-55
2022/09/03 12:04:43;;;;;;;1.77;0.82;;;25.60;68.10;;;;;;4974661;28;20066;-55
2022/09/03 12:07:58;;;;;;;4.43;0.90;;;25.80;69.20;;;;;;4974191;28;20134;-56
2022/09/03 12:11:07;;;;;;;1.10;1.00;;;25.80;69.30;;;;;;4932600;29;20047;-57
2022/09/03 12:13:43;;;;;;;2.65;0.88;;;25.90;68.70;;;;;;4894417;29;20529;-54
2022/09/03 12:16:36;;;;;;;0.77;0.75;;;25.90;68.60;;;;;;4932553;29;20170;-56
2022/09/03 12:19:10;;;;;;;2.75;0.93;;;26.00;68.00;;;;;;4927395;29;20063;-56
2022/09/03 12:21:39;;;;;;;1.58;0.98;;;26.00;67.40;;;;;;4932979;29;20546;-54
2022/09/03 12:24:10;;;;;;;2.38;0.80;;;25.90;67.60;;;;;;4916776;29;20553;-54
2022/09/03 12:26:40;;;;;;;1.58;1.30;;;26.00;68.40;;;;;;4931428;29;20046;-55
2022/09/03 12:29:18;;;;;;;1.05;0.80;;;26.00;67.60;;;;;;4930056;29;20411;-55
2022/09/03 12:31:47;;;;;;;2.75;0.88;;;26.10;68.30;;;;;;4931984;29;20054;-56
2022/09/03 12:34:19;;;;;;;2.63;0.90;;;26.20;67.90;;;;;;4932079;29;20518;-56
2022/09/03 12:36:47;;;;;;;1.77;0.90;;;26.10;67.10;;;;;;4931314;29;20462;-54
2022/09/03 12:39:15;;;;;;;1.75;1.13;;;26.00;66.40;;;;;;4932971;29;20106;-55
2022/09/03 12:41:55;;;;;;;2.60;1.20;;;25.90;67.30;;;;;;4932174;29;20101;-54
2022/09/03 12:44:34;;;;;;;0.95;0.80;;;25.90;67.20;;;;;;4952612;28;20125;-54
2022/09/03 12:47:06;;;;;;;3.53;0.80;;;26.00;67.90;;;;;;4973805;28;20047;-55
2022/09/03 12:49:45;;;;;;;1.80;1.02;;;26.30;68.30;;;;;;4972532;28;20122;-54
2022/09/03 12:52:18;;;;;;;1.13;0.80;;;26.50;68.30;;;;;;4961137;28;20059;-54
2022/09/03 12:55:07;;;;;;;2.45;0.95;;;26.60;67.60;;;;;;4973595;28;20043;-55
2022/09/03 12:57:44;;;;;;;1.52;0.70;;;26.60;67.50;;;;;;4969730;28;20046;-53
2022/09/03 13:00:14;;;;;;;0.98;0.88;;;26.70;67.50;;;;;;4973406;28;20433;-54
2022/09/03 13:03:06;;;;;;;2.30;1.25;;;26.80;67.50;;;;;;4973665;28;20039;-54
2022/09/03 13:05:39;;;;;;;1.65;0.90;;;26.70;66.20;;;;;;4970877;28;20122;-53
2022/09/03 13:08:07;;;;;;;1.70;0.90;;;26.40;66.40;;;;;;4973435;28;20054;-54
2022/09/03 13:10:37;;;;;;;3.15;0.88;;;26.60;67.60;;;;;;4972668;28;20038;-55
2022/09/03 13:13:07;;;;;;;5.40;0.82;;;26.70;67.90;;;;;;5032465;23;20073;-48
2022/09/03 13:15:33;;;;;;;6.50;0.95;;;26.70;66.80;;;;;;5055071;28;20043;-47
2022/09/03 13:18:22;;;;;;;1.70;1.00;;;26.60;66.70;;;;;;5071659;28;20045;-50
2022/09/03 13:21:20;;;;;;;2.80;0.88;;;26.60;66.50;;;;;;5069653;28;20399;-51
2022/09/03 13:24:04;;;;;;;2.50;0.82;;;27.00;67.50;;;;;;5066872;28;20049;-51